Time;durP1;ratioP1;P1;durP2;ratioP2;P2;SDS_P1;SDS_P2;PMS_P1;PMS_P2;Temp;Humidity;BMP_temperature;BMP_pressure;BME280_temperature;BME280_humidity;BME280_pressure;Samples;Min_cycle;Max_cycle;Signal;HPM_P1;HPM_P2
2022/10/09 00:01:14;;;;;;;12.63;7.18;;;;;;;;;;6023055;29;20062;-84
2022/10/09 00:04:16;;;;;;;12.10;7.32;;;;;;;;;;6028483;29;20289;-84
2022/10/09 00:07:18;;;;;;;9.63;6.35;;;;;;;;;;6038706;29;20060;-84
2022/10/09 00:10:19;;;;;;;10.30;6.78;;;;;;;;;;6057955;29;20091;-83
2022/10/09 00:13:21;;;;;;;9.18;6.32;;;;;;;;;;6050584;29;20049;-84
2022/10/09 00:16:24;;;;;;;10.50;6.70;;;;;;;;;;6033184;29;20048;-84
2022/10/09 00:19:26;;;;;;;9.63;6.28;;;;;;;;;;6034162;29;20060;-84
2022/10/09 00:22:27;;;;;;;9.13;6.60;;;;;;;;;;6017278;29;20101;-84
2022/10/09 00:25:29;;;;;;;10.23;6.78;;;;;;;;;;6050978;29;20157;-85
2022/10/09 00:28:31;;;;;;;9.75;6.30;;;;;;;;;;6039449;29;20072;-85
2022/10/09 00:31:39;;;;;;;13.82;6.28;;;;;;;;;;6050807;29;20087;-84
2022/10/09 00:34:40;;;;;;;11.68;6.53;;;;;;;;;;6051813;29;20067;-84
2022/10/09 00:37:42;;;;;;;8.52;5.80;;;;;;;;;;6033278;29;20061;-84
2022/10/09 00:40:43;;;;;;;9.63;5.85;;;;;;;;;;6048632;29;20743;-84
2022/10/09 00:43:50;;;;;;;10.73;6.05;;;;;;;;;;6027979;29;20056;-84
2022/10/09 00:46:51;;;;;;;10.57;6.07;;;;;;;;;;6030033;29;20424;-84
2022/10/09 00:49:57;;;;;;;7.88;5.70;;;;;;;;;;6043200;29;20053;-84
2022/10/09 00:53:02;;;;;;;13.80;6.65;;;;;;;;;;6054278;29;20062;-84
2022/10/09 00:56:03;;;;;;;11.02;5.85;;;;;;;;;;6036990;29;20056;-85
2022/10/09 00:59:06;;;;;;;12.13;6.60;;;;;;;;;;6055586;29;20501;-84
2022/10/09 01:02:07;;;;;;;12.18;6.20;;;;;;;;;;6044895;29;20067;-84
2022/10/09 01:05:10;;;;;;;13.20;6.82;;;;;;;;;;6030659;29;20073;-84
2022/10/09 01:08:34;;;;;;;13.13;6.85;;;;;;;;;;6041094;29;20124;-84
2022/10/09 01:11:57;;;;;;;13.38;6.43;;;;;;;;;;6033844;29;20068;-85
2022/10/09 01:15:14;;;;;;;16.10;7.27;;;;;;;;;;6039965;29;20538;-84
2022/10/09 01:18:44;;;;;;;17.30;7.72;;;;;;;;;;6025820;29;20057;-84
2022/10/09 01:22:15;;;;;;;12.95;7.72;;;;;;;;;;6041450;29;20060;-84
2022/10/09 01:25:55;;;;;;;15.50;8.38;;;;;;;;;;6028964;29;20052;-84
2022/10/09 01:29:00;;;;;;;16.00;7.47;;;;;;;;;;6051569;29;20048;-84
2022/10/09 01:32:03;;;;;;;13.65;7.70;;;;;;;;;;6034833;29;20176;-84
2022/10/09 01:35:07;;;;;;;15.45;8.45;;;;;;;;;;6014370;29;20071;-84
2022/10/09 01:38:09;;;;;;;19.80;8.55;;;;;;;;;;6024558;29;20049;-84
2022/10/09 01:41:11;;;;;;;19.17;8.10;;;;;;;;;;6047363;29;20104;-84
2022/10/09 01:44:24;;;;;;;21.45;8.30;;;;;;;;;;6039779;29;20048;-84
2022/10/09 01:47:26;;;;;;;13.93;6.57;;;;;;;;;;6015502;29;20057;-83
2022/10/09 01:50:33;;;;;;;15.20;7.00;;;;;;;;;;6034618;29;20067;-83
2022/10/09 01:53:35;;;;;;;12.02;6.50;;;;;;;;;;6027185;29;20056;-83
2022/10/09 01:56:38;;;;;;;15.80;6.28;;;;;;;;;;6018864;29;20514;-84
2022/10/09 01:59:44;;;;;;;11.38;6.63;;;;;;;;;;6035925;29;20061;-83
2022/10/09 02:02:47;;;;;;;13.27;6.65;;;;;;;;;;5975784;29;20053;-84
2022/10/09 02:05:51;;;;;;;17.15;6.68;;;;;;;;;;6035542;29;20058;-83
2022/10/09 02:08:54;;;;;;;19.17;6.63;;;;;;;;;;6030961;29;20053;-83
2022/10/09 02:12:02;;;;;;;17.42;6.75;;;;;;;;;;6016543;29;20044;-83
2022/10/09 02:15:05;;;;;;;19.83;7.40;;;;;;;;;;6026859;29;20058;-84
2022/10/09 02:18:11;;;;;;;14.95;6.70;;;;;;;;;;6017369;29;20739;-84
2022/10/09 02:21:19;;;;;;;15.68;6.78;;;;;;;;;;6047917;29;20095;-84
2022/10/09 02:24:22;;;;;;;15.23;6.93;;;;;;;;;;6041300;29;20048;-83
2022/10/09 02:27:25;;;;;;;11.82;6.32;;;;;;;;;;6024607;29;20052;-84
2022/10/09 02:30:50;;;;;;;12.05;6.97;;;;;;;;;;6030543;29;20052;-84
2022/10/09 02:33:56;;;;;;;12.77;6.20;;;;;;;;;;6038454;29;20049;-83
2022/10/09 02:36:58;;;;;;;13.55;6.80;;;;;;;;;;6046670;29;20053;-85
2022/10/09 02:40:00;;;;;;;15.40;7.03;;;;;;;;;;6031358;29;20053;-84
2022/10/09 02:43:01;;;;;;;14.25;6.03;;;;;;;;;;6010887;29;20990;-85
2022/10/09 02:46:03;;;;;;;16.83;7.35;;;;;;;;;;6033721;29;20600;-83
2022/10/09 02:49:05;;;;;;;12.77;6.43;;;;;;;;;;6018023;29;20053;-83
2022/10/09 02:52:07;;;;;;;12.18;6.78;;;;;;;;;;6042454;29;20052;-83
2022/10/09 02:55:09;;;;;;;13.95;7.10;;;;;;;;;;6035926;29;20429;-84
2022/10/09 02:58:11;;;;;;;13.60;6.45;;;;;;;;;;6031393;29;20049;-84
2022/10/09 03:01:13;;;;;;;14.80;6.03;;;;;;;;;;6036513;29;20048;-83
2022/10/09 03:04:14;;;;;;;13.35;6.60;;;;;;;;;;6031784;29;20560;-83
2022/10/09 03:07:16;;;;;;;16.17;5.70;;;;;;;;;;6053600;29;20045;-83
2022/10/09 03:10:19;;;;;;;10.85;5.78;;;;;;;;;;6049353;29;20048;-83
2022/10/09 03:13:21;;;;;;;14.50;6.60;;;;;;;;;;6018007;29;20201;-83
2022/10/09 03:16:25;;;;;;;19.42;7.00;;;;;;;;;;6054715;29;21874;-83
2022/10/09 03:19:26;;;;;;;25.10;6.28;;;;;;;;;;6017275;29;20056;-83
2022/10/09 03:22:28;;;;;;;8.73;6.00;;;;;;;;;;6052447;29;20045;-83
2022/10/09 03:25:30;;;;;;;12.80;6.00;;;;;;;;;;6054885;29;20537;-83
2022/10/09 03:28:35;;;;;;;12.10;6.35;;;;;;;;;;6039617;29;20078;-83
2022/10/09 03:31:37;;;;;;;15.93;6.75;;;;;;;;;;6023202;29;20052;-83
2022/10/09 03:34:54;;;;;;;14.23;6.82;;;;;;;;;;6051647;29;20140;-84
2022/10/09 03:37:56;;;;;;;14.18;6.32;;;;;;;;;;6037051;29;20057;-84
2022/10/09 03:40:58;;;;;;;14.95;6.68;;;;;;;;;;6036338;29;20045;-84
2022/10/09 03:44:00;;;;;;;11.30;6.05;;;;;;;;;;6035900;29;20572;-83
2022/10/09 03:47:02;;;;;;;12.73;5.82;;;;;;;;;;6054412;29;20052;-83
2022/10/09 03:50:04;;;;;;;12.05;6.20;;;;;;;;;;6039716;29;20052;-84
2022/10/09 03:53:07;;;;;;;11.00;6.03;;;;;;;;;;6035331;29;20092;-83
2022/10/09 03:56:08;;;;;;;12.55;7.05;;;;;;;;;;6041664;29;20468;-84
2022/10/09 03:59:10;;;;;;;10.00;6.43;;;;;;;;;;6051137;29;20061;-83
2022/10/09 04:02:12;;;;;;;14.38;6.45;;;;;;;;;;6039931;29;20124;-84
2022/10/09 04:05:15;;;;;;;10.82;6.22;;;;;;;;;;6044007;29;20056;-84
2022/10/09 04:08:19;;;;;;;9.95;5.80;;;;;;;;;;6040594;29;20041;-84
2022/10/09 04:11:21;;;;;;;11.95;5.63;;;;;;;;;;6051364;29;20131;-84
2022/10/09 04:14:23;;;;;;;9.43;5.78;;;;;;;;;;6042899;29;20446;-83
2022/10/09 04:17:25;;;;;;;12.27;5.80;;;;;;;;;;6051384;29;20063;-84
2022/10/09 04:20:26;;;;;;;11.82;6.30;;;;;;;;;;6055821;29;20076;-84
2022/10/09 04:23:28;;;;;;;11.98;6.38;;;;;;;;;;6041555;29;20061;-83
2022/10/09 04:26:30;;;;;;;11.52;5.47;;;;;;;;;;6036931;29;20068;-83
2022/10/09 04:29:31;;;;;;;12.70;5.40;;;;;;;;;;6045142;29;20060;-84
2022/10/09 04:32:33;;;;;;;10.40;5.72;;;;;;;;;;6050301;29;20049;-83
2022/10/09 04:35:35;;;;;;;15.85;6.70;;;;;;;;;;6019987;29;20184;-83
2022/10/09 04:38:37;;;;;;;11.77;5.60;;;;;;;;;;6026648;29;20045;-83
2022/10/09 04:41:38;;;;;;;12.52;5.43;;;;;;;;;;6018197;29;20112;-83
2022/10/09 04:44:40;;;;;;;8.50;5.45;;;;;;;;;;6028353;29;20061;-84
2022/10/09 04:47:42;;;;;;;11.00;5.45;;;;;;;;;;6032050;29;20056;-83
2022/10/09 04:50:46;;;;;;;9.40;5.18;;;;;;;;;;6042379;29;20067;-84
2022/10/09 04:53:48;;;;;;;6.43;4.45;;;;;;;;;;6020981;29;20045;-83
2022/10/09 04:56:49;;;;;;;7.75;4.53;;;;;;;;;;6037229;29;20174;-83
2022/10/09 04:59:51;;;;;;;7.40;4.60;;;;;;;;;;6035949;29;20136;-83
2022/10/09 05:02:53;;;;;;;7.18;4.95;;;;;;;;;;6048178;29;20292;-83
2022/10/09 05:06:00;;;;;;;9.88;5.47;;;;;;;;;;6058109;29;20101;-83
2022/10/09 05:09:01;;;;;;;16.50;5.78;;;;;;;;;;6021515;29;20053;-83
2022/10/09 05:12:03;;;;;;;11.25;5.88;;;;;;;;;;6041551;29;20432;-84
2022/10/09 05:15:06;;;;;;;10.27;4.80;;;;;;;;;;6033819;29;20060;-84
2022/10/09 05:18:10;;;;;;;14.60;4.90;;;;;;;;;;6032285;29;20041;-84
2022/10/09 05:21:16;;;;;;;11.55;4.97;;;;;;;;;;6041080;29;20064;-84
2022/10/09 05:24:18;;;;;;;10.13;5.07;;;;;;;;;;6023615;29;20163;-84
2022/10/09 05:27:20;;;;;;;8.57;5.53;;;;;;;;;;6039523;29;20052;-84
2022/10/09 05:30:21;;;;;;;8.70;5.20;;;;;;;;;;6050665;29;20096;-85
2022/10/09 05:33:23;;;;;;;7.82;4.93;;;;;;;;;;6038657;29;20097;-85
2022/10/09 05:36:25;;;;;;;11.07;5.43;;;;;;;;;;6033052;29;20052;-86
2022/10/09 05:39:26;;;;;;;9.80;4.97;;;;;;;;;;6037469;29;20053;-86
2022/10/09 05:42:28;;;;;;;12.55;5.80;;;;;;;;;;6048811;29;20071;-85
2022/10/09 05:45:30;;;;;;;12.68;6.55;;;;;;;;;;6008169;29;20112;-86
2022/10/09 05:48:32;;;;;;;10.75;5.93;;;;;;;;;;6035847;29;20049;-85
2022/10/09 05:51:38;;;;;;;11.15;5.55;;;;;;;;;;6047871;29;20150;-86
2022/10/09 05:54:40;;;;;;;9.60;5.80;;;;;;;;;;6035423;29;20048;-85
2022/10/09 05:57:42;;;;;;;20.33;6.53;;;;;;;;;;6038071;29;20060;-85
2022/10/09 06:00:44;;;;;;;12.65;6.65;;;;;;;;;;6044573;29;20169;-86
2022/10/09 06:03:50;;;;;;;8.88;5.75;;;;;;;;;;6038124;29;20049;-86
2022/10/09 06:06:52;;;;;;;18.73;10.68;;;;;;;;;;6043066;29;20059;-85
2022/10/09 06:09:54;;;;;;;11.52;7.05;;;;;;;;;;6041515;29;20519;-86
2022/10/09 06:12:56;;;;;;;17.60;8.55;;;;;;;;;;6039647;29;20235;-86
2022/10/09 06:15:57;;;;;;;11.70;6.50;;;;;;;;;;6037567;29;20053;-86
2022/10/09 06:19:00;;;;;;;10.15;6.28;;;;;;;;;;6021653;29;20054;-85
2022/10/09 06:22:02;;;;;;;12.43;6.22;;;;;;;;;;6006109;29;20053;-85
2022/10/09 06:25:03;;;;;;;9.57;6.00;;;;;;;;;;6021558;29;20052;-86
2022/10/09 06:28:05;;;;;;;12.07;6.50;;;;;;;;;;6031358;29;20049;-86
2022/10/09 06:31:16;;;;;;;7.90;6.47;;;;;;;;;;6048808;29;20509;-85
2022/10/09 06:34:21;;;;;;;23.70;11.27;;;;;;;;;;6037728;29;20044;-86
2022/10/09 06:37:23;;;;;;;14.93;8.10;;;;;;;;;;6032351;29;20541;-85
2022/10/09 06:40:25;;;;;;;16.20;7.82;;;;;;;;;;6024075;29;20147;-86
2022/10/09 06:43:27;;;;;;;14.10;8.23;;;;;;;;;;6048538;29;20056;-85
2022/10/09 06:46:32;;;;;;;14.93;8.80;;;;;;;;;;6030625;29;20059;-85
2022/10/09 06:49:33;;;;;;;17.58;8.63;;;;;;;;;;6037612;29;20057;-86
2022/10/09 06:52:35;;;;;;;12.63;7.07;;;;;;;;;;6035892;29;20063;-85
2022/10/09 06:55:36;;;;;;;10.77;6.57;;;;;;;;;;6032766;29;20064;-85
2022/10/09 06:58:39;;;;;;;12.15;5.90;;;;;;;;;;6036645;29;20048;-86
2022/10/09 07:01:41;;;;;;;9.88;6.40;;;;;;;;;;6031428;29;20065;-86
2022/10/09 07:04:43;;;;;;;9.27;5.35;;;;;;;;;;5995063;29;20059;-87
2022/10/09 07:07:45;;;;;;;8.27;5.60;;;;;;;;;;6003402;29;20045;-86
2022/10/09 07:10:46;;;;;;;8.85;5.07;;;;;;;;;;6020182;29;20065;-86
2022/10/09 07:13:55;;;;;;;7.10;5.50;;;;;;;;;;6032396;29;20060;-87
2022/10/09 07:16:57;;;;;;;6.03;4.43;;;;;;;;;;6004793;29;20054;-86
2022/10/09 07:20:01;;;;;;;4.55;3.80;;;;;;;;;;6009788;29;20052;-85
2022/10/09 07:23:03;;;;;;;5.43;4.10;;;;;;;;;;6052388;29;20056;-85
2022/10/09 07:26:15;;;;;;;6.80;4.38;;;;;;;;;;6016911;29;20056;-86
2022/10/09 07:29:17;;;;;;;6.93;4.78;;;;;;;;;;6018051;29;20091;-85
2022/10/09 07:32:19;;;;;;;5.55;4.40;;;;;;;;;;6040561;29;20135;-85
2022/10/09 07:35:21;;;;;;;12.77;7.07;;;;;;;;;;6056405;29;20238;-86
2022/10/09 07:38:23;;;;;;;11.27;7.90;;;;;;;;;;6034756;29;20048;-86
2022/10/09 07:41:27;;;;;;;7.55;6.10;;;;;;;;;;6032658;29;20049;-86
2022/10/09 07:44:28;;;;;;;6.25;4.13;;;;;;;;;;6044006;29;20060;-85
2022/10/09 07:47:30;;;;;;;5.65;3.53;;;;;;;;;;6012959;29;20053;-88
2022/10/09 07:50:32;;;;;;;5.13;3.63;;;;;;;;;;6045219;29;20056;-86
2022/10/09 07:53:34;;;;;;;5.47;3.78;;;;;;;;;;6043258;29;20080;-87
2022/10/09 07:56:39;;;;;;;7.40;4.63;;;;;;;;;;6028333;29;20097;-86
2022/10/09 07:59:40;;;;;;;4.60;3.55;;;;;;;;;;6025984;29;20064;-88
2022/10/09 08:02:42;;;;;;;4.88;3.00;;;;;;;;;;6023721;29;20394;-86
2022/10/09 08:05:55;;;;;;;5.88;3.80;;;;;;;;;;6034267;29;20045;-86
2022/10/09 08:08:58;;;;;;;3.55;3.03;;;;;;;;;;6019573;29;20049;-87
2022/10/09 08:11:59;;;;;;;;;;;;;;;;;;5982199;29;20074;-86
2022/10/09 08:15:02;;;;;;;5.00;3.70;;;;;;;;;;6033918;29;19972;-88
2022/10/09 08:18:07;;;;;;;4.53;3.38;;;;;;;;;;6016344;29;20073;-82
2022/10/09 08:21:13;;;;;;;4.25;3.15;;;;;;;;;;6032360;29;20049;-84
2022/10/09 08:24:15;;;;;;;4.57;3.78;;;;;;;;;;6017654;29;20127;-86
2022/10/09 08:27:16;;;;;;;3.63;2.90;;;;;;;;;;6032608;29;20124;-86
2022/10/09 08:30:19;;;;;;;3.25;2.60;;;;;;;;;;6011754;29;20046;-85
2022/10/09 08:33:22;;;;;;;2.85;2.45;;;;;;;;;;6019849;29;20164;-87
2022/10/09 08:36:24;;;;;;;;;;;;;;;;;;5980377;29;20045;-87
2022/10/09 08:39:29;;;;;;;5.90;4.03;;;;;;;;;;5984467;29;19932;-87
2022/10/09 08:42:40;;;;;;;4.60;3.42;;;;;;;;;;6022809;29;20436;-87
2022/10/09 08:45:45;;;;;;;3.90;3.22;;;;;;;;;;6003911;29;20133;-89
2022/10/09 08:48:48;;;;;;;7.85;5.53;;;;;;;;;;6019274;29;20063;-88
2022/10/09 08:51:57;;;;;;;8.07;5.70;;;;;;;;;;6030716;29;20049;-87
2022/10/09 08:59:30;;;;;;;6.32;4.72;;;;;;;;;;5962775;29;20042;-86
2022/10/09 09:03:13;;;;;;;5.95;4.63;;;;;;;;;;5940067;29;20676;-87
2022/10/09 09:06:15;;;;;;;7.07;3.85;;;;;;;;;;5995984;29;20048;-88
2022/10/09 09:09:26;;;;;;;5.07;3.70;;;;;;;;;;6039755;29;20051;-87
2022/10/09 09:12:41;;;;;;;4.28;2.80;;;;;;;;;;6030115;29;20060;-87
2022/10/09 09:15:54;;;;;;;3.65;2.50;;;;;;;;;;6014949;29;20543;-86
2022/10/09 09:19:16;;;;;;;5.78;2.90;;;;;;;;;;6031814;29;20069;-86
2022/10/09 09:22:18;;;;;;;5.63;3.10;;;;;;;;;;6028917;29;20440;-87
2022/10/09 09:25:33;;;;;;;6.00;2.50;;;;;;;;;;5984841;29;20050;-87
2022/10/09 09:28:38;;;;;;;5.78;2.47;;;;;;;;;;6016994;29;20429;-88
2022/10/09 09:31:42;;;;;;;5.53;3.38;;;;;;;;;;6021136;29;20082;-86
2022/10/09 09:34:44;;;;;;;6.93;3.05;;;;;;;;;;6007531;29;20059;-87
2022/10/09 09:37:46;;;;;;;6.50;3.10;;;;;;;;;;6028102;29;20053;-88
2022/10/09 09:40:49;;;;;;;5.03;2.60;;;;;;;;;;6017559;29;20049;-87
2022/10/09 09:43:51;;;;;;;5.65;2.70;;;;;;;;;;6020034;29;20065;-87
2022/10/09 09:46:53;;;;;;;4.45;1.73;;;;;;;;;;6023234;29;20124;-87
2022/10/09 09:49:58;;;;;;;3.40;1.77;;;;;;;;;;5980256;29;20504;-89
2022/10/09 09:53:05;;;;;;;4.53;1.90;;;;;;;;;;6004057;29;20060;-86
2022/10/09 09:56:11;;;;;;;3.00;1.75;;;;;;;;;;6007071;29;20044;-87
2022/10/09 09:59:25;;;;;;;4.15;1.77;;;;;;;;;;6038525;29;20151;-86
2022/10/09 10:02:27;;;;;;;4.63;2.10;;;;;;;;;;6028444;29;20049;-89
2022/10/09 10:05:37;;;;;;;2.53;1.60;;;;;;;;;;6004600;29;20106;-86
2022/10/09 10:08:39;;;;;;;4.13;1.83;;;;;;;;;;5999358;29;20060;-85
2022/10/09 10:11:45;;;;;;;4.30;1.80;;;;;;;;;;6045096;29;20048;-85
2022/10/09 10:14:50;;;;;;;2.45;1.60;;;;;;;;;;6041052;29;20479;-85
2022/10/09 10:17:57;;;;;;;5.38;1.83;;;;;;;;;;6028456;29;20061;-85
2022/10/09 10:21:14;;;;;;;4.65;1.77;;;;;;;;;;6041326;29;20061;-85
2022/10/09 10:24:20;;;;;;;3.35;1.60;;;;;;;;;;6044778;29;20826;-86
2022/10/09 10:27:34;;;;;;;3.05;1.52;;;;;;;;;;6015855;29;20049;-86
2022/10/09 10:30:36;;;;;;;6.32;2.08;;;;;;;;;;6036904;29;20049;-85
2022/10/09 10:33:42;;;;;;;7.72;2.67;;;;;;;;;;6031567;29;20637;-86
2022/10/09 10:36:45;;;;;;;2.90;1.88;;;;;;;;;;6015833;29;20091;-87
2022/10/09 10:40:02;;;;;;;3.10;1.67;;;;;;;;;;6040064;29;20053;-86
2022/10/09 10:43:18;;;;;;;5.93;2.03;;;;;;;;;;6023192;29;20045;-86
2022/10/09 10:46:43;;;;;;;6.47;2.50;;;;;;;;;;6031391;29;20154;-86
2022/10/09 10:49:45;;;;;;;3.90;1.75;;;;;;;;;;6028694;29;20489;-88
2022/10/09 10:53:10;;;;;;;3.35;1.63;;;;;;;;;;6038601;29;20072;-87
2022/10/09 10:56:39;;;;;;;3.38;1.92;;;;;;;;;;6020801;29;20060;-86
2022/10/09 10:59:47;;;;;;;4.82;2.38;;;;;;;;;;6007663;29;20067;-86
2022/10/09 11:03:02;;;;;;;6.47;2.05;;;;;;;;;;6013792;29;20052;-86
2022/10/09 11:06:12;;;;;;;2.53;1.80;;;;;;;;;;5998347;29;20527;-86
2022/10/09 11:09:32;;;;;;;2.08;1.60;;;;;;;;;;6005851;29;20060;-86
2022/10/09 11:12:56;;;;;;;3.65;2.00;;;;;;;;;;6033300;29;20048;-86
2022/10/09 11:16:16;;;;;;;;;;;;;;;;;;6011005;29;20059;-86
2022/10/09 11:19:53;;;;;;;3.45;1.55;;;;;;;;;;6029480;29;19934;-85
2022/10/09 11:23:05;;;;;;;3.17;1.63;;;;;;;;;;5955021;29;20058;-86
2022/10/09 11:26:20;;;;;;;2.38;1.45;;;;;;;;;;6003318;29;20057;-86
2022/10/09 11:29:32;;;;;;;1.58;1.40;;;;;;;;;;6030621;29;20053;-85
2022/10/09 11:32:38;;;;;;;2.78;1.48;;;;;;;;;;6029752;29;20048;-86
2022/10/09 11:35:45;;;;;;;3.08;1.40;;;;;;;;;;6022003;29;20057;-86
2022/10/09 11:38:59;;;;;;;4.82;2.10;;;;;;;;;;6026473;29;20136;-86
2022/10/09 11:42:01;;;;;;;3.75;1.50;;;;;;;;;;6027273;29;20057;-86
2022/10/09 11:45:20;;;;;;;2.27;1.33;;;;;;;;;;6036753;29;20053;-86
2022/10/09 11:48:49;;;;;;;4.57;1.42;;;;;;;;;;6021720;29;20468;-85
2022/10/09 11:52:10;;;;;;;4.97;1.67;;;;;;;;;;6013545;29;20054;-88
2022/10/09 11:55:18;;;;;;;2.92;1.38;;;;;;;;;;6036228;29;20054;-87
2022/10/09 11:58:24;;;;;;;4.63;1.90;;;;;;;;;;6025592;29;20049;-87
2022/10/09 12:01:43;;;;;;;4.90;1.40;;;;;;;;;;6015710;29;20061;-87
2022/10/09 12:04:46;;;;;;;3.60;1.48;;;;;;;;;;6001748;29;20138;-87
2022/10/09 12:08:10;;;;;;;3.55;1.80;;;;;;;;;;5986245;29;20060;-87
2022/10/09 12:11:18;;;;;;;5.05;2.00;;;;;;;;;;6027209;29;20061;-87
2022/10/09 12:14:28;;;;;;;3.83;1.77;;;;;;;;;;6004637;29;20060;-87
2022/10/09 12:17:33;;;;;;;2.35;1.33;;;;;;;;;;6007678;29;20175;-88
2022/10/09 12:20:44;;;;;;;2.45;1.33;;;;;;;;;;6004161;29;20054;-87
2022/10/09 12:23:48;;;;;;;4.32;1.40;;;;;;;;;;6017394;29;20041;-88
2022/10/09 12:26:51;;;;;;;4.30;1.50;;;;;;;;;;6015620;29;20136;-87
2022/10/09 12:30:14;;;;;;;2.95;1.50;;;;;;;;;;6041323;29;20100;-87
2022/10/09 12:33:27;;;;;;;2.38;1.40;;;;;;;;;;6024695;29;20089;-87
2022/10/09 12:36:33;;;;;;;3.08;1.50;;;;;;;;;;6011974;29;20060;-87
2022/10/09 12:39:36;;;;;;;3.97;2.03;;;;;;;;;;6030425;29;20144;-87
2022/10/09 12:42:42;;;;;;;2.28;1.25;;;;;;;;;;6008451;29;20049;-87
2022/10/09 12:45:46;;;;;;;1.98;1.13;;;;;;;;;;6007458;29;20063;-87
2022/10/09 12:48:48;;;;;;;4.57;1.50;;;;;;;;;;6018255;29;20056;-89
2022/10/09 12:51:53;;;;;;;3.88;1.00;;;;;;;;;;5996956;29;20053;-86
2022/10/09 12:54:57;;;;;;;2.50;1.45;;;;;;;;;;6036172;29;20045;-88
2022/10/09 12:58:05;;;;;;;4.57;1.58;;;;;;;;;;6033147;29;20045;-85
2022/10/09 13:01:12;;;;;;;4.35;1.45;;;;;;;;;;6045753;29;20052;-87
2022/10/09 13:04:30;;;;;;;2.70;1.17;;;;;;;;;;6019809;29;20069;-85
2022/10/09 13:07:32;;;;;;;3.25;1.23;;;;;;;;;;6020045;29;20053;-85
2022/10/09 13:10:34;;;;;;;3.50;1.50;;;;;;;;;;6013727;29;20148;-87
2022/10/09 13:13:36;;;;;;;1.88;1.38;;;;;;;;;;6002139;29;20109;-86
2022/10/09 13:16:46;;;;;;;3.72;1.48;;;;;;;;;;6000058;29;20051;-86
2022/10/09 13:19:53;;;;;;;1.80;1.17;;;;;;;;;;6018915;29;20064;-87
2022/10/09 13:23:04;;;;;;;3.47;1.00;;;;;;;;;;6016612;29;20053;-87
2022/10/09 13:26:05;;;;;;;2.03;1.70;;;;;;;;;;6014237;29;20128;-87
2022/10/09 13:29:07;;;;;;;2.33;1.20;;;;;;;;;;6018183;29;20118;-86
2022/10/09 13:32:14;;;;;;;3.25;1.15;;;;;;;;;;6028669;29;20052;-86
2022/10/09 13:35:19;;;;;;;3.47;1.10;;;;;;;;;;6014754;29;20520;-85
2022/10/09 13:38:22;;;;;;;2.28;1.20;;;;;;;;;;6031609;29;20432;-86
2022/10/09 13:41:23;;;;;;;;;;;;;;;;;;6033862;29;20428;-85
2022/10/09 13:44:25;;;;;;;1.98;1.15;;;;;;;;;;6019895;29;19928;-85
2022/10/09 13:47:28;;;;;;;3.95;1.40;;;;;;;;;;6019895;29;20542;-85
2022/10/09 13:50:30;;;;;;;2.13;1.27;;;;;;;;;;6046958;29;20072;-85
2022/10/09 13:53:31;;;;;;;3.92;1.67;;;;;;;;;;6033233;29;20090;-85
2022/10/09 13:56:33;;;;;;;2.83;1.40;;;;;;;;;;6027365;29;20531;-85
2022/10/09 13:59:35;;;;;;;3.03;0.98;;;;;;;;;;6026638;29;20049;-85
2022/10/09 14:02:37;;;;;;;2.72;1.10;;;;;;;;;;6028902;29;20116;-85
2022/10/09 14:05:40;;;;;;;3.50;1.73;;;;;;;;;;6005943;29;20045;-85
2022/10/09 14:08:41;;;;;;;5.03;1.37;;;;;;;;;;6026009;29;20120;-86
2022/10/09 14:11:43;;;;;;;4.10;1.23;;;;;;;;;;6026095;29;20057;-85
2022/10/09 14:14:45;;;;;;;2.63;1.10;;;;;;;;;;6022993;29;20055;-84
2022/10/09 14:17:47;;;;;;;1.98;1.27;;;;;;;;;;6021170;29;20185;-84
2022/10/09 14:20:49;;;;;;;3.60;1.33;;;;;;;;;;6023855;29;20512;-85
2022/10/09 14:23:54;;;;;;;2.45;1.27;;;;;;;;;;6009896;29;20179;-85
2022/10/09 14:26:56;;;;;;;1.98;1.17;;;;;;;;;;6006431;29;20045;-85
2022/10/09 14:29:58;;;;;;;3.30;1.48;;;;;;;;;;6031170;29;20052;-85
2022/10/09 14:33:01;;;;;;;3.38;1.30;;;;;;;;;;6020293;29;20077;-86
2022/10/09 14:36:08;;;;;;;2.50;1.10;;;;;;;;;;6023838;29;20064;-84
2022/10/09 14:39:11;;;;;;;2.03;1.15;;;;;;;;;;6022053;29;20441;-84
2022/10/09 14:42:15;;;;;;;2.17;1.13;;;;;;;;;;6039152;29;20068;-84
2022/10/09 14:45:17;;;;;;;3.33;1.50;;;;;;;;;;6032430;29;20053;-84
2022/10/09 14:48:19;;;;;;;1.65;1.17;;;;;;;;;;6034187;29;20677;-84
2022/10/09 14:51:23;;;;;;;3.53;1.40;;;;;;;;;;6048551;29;20116;-84
2022/10/09 14:54:25;;;;;;;3.95;1.05;;;;;;;;;;6042017;29;20068;-84
2022/10/09 14:57:26;;;;;;;2.38;1.20;;;;;;;;;;6027962;29;20041;-84
2022/10/09 15:00:35;;;;;;;3.03;1.20;;;;;;;;;;6051553;29;20056;-84
2022/10/09 15:03:37;;;;;;;2.65;1.10;;;;;;;;;;6046556;29;20564;-85
2022/10/09 15:06:38;;;;;;;1.38;1.27;;;;;;;;;;6039971;29;20057;-84
2022/10/09 15:09:40;;;;;;;1.80;1.10;;;;;;;;;;6047234;29;20049;-84
2022/10/09 15:12:42;;;;;;;1.10;1.00;;;;;;;;;;6032864;29;20056;-83
2022/10/09 15:15:43;;;;;;;2.50;1.90;;;;;;;;;;6055318;29;20044;-84
2022/10/09 15:18:47;;;;;;;4.57;2.30;;;;;;;;;;6025577;29;20064;-84
2022/10/09 15:21:49;;;;;;;2.70;1.27;;;;;;;;;;6038289;29;20099;-84
2022/10/09 15:24:50;;;;;;;1.70;1.00;;;;;;;;;;6038287;29;20059;-84
2022/10/09 15:27:52;;;;;;;2.78;1.35;;;;;;;;;;6032891;29;20053;-84
2022/10/09 15:30:59;;;;;;;1.98;1.30;;;;;;;;;;6033060;29;20056;-84
2022/10/09 15:34:02;;;;;;;2.25;1.45;;;;;;;;;;6051939;29;20065;-84
2022/10/09 15:37:04;;;;;;;2.58;1.20;;;;;;;;;;6051439;29;20057;-84
2022/10/09 15:40:06;;;;;;;2.33;0.93;;;;;;;;;;6052698;29;20142;-84
2022/10/09 15:43:08;;;;;;;2.45;1.20;;;;;;;;;;6033699;29;20049;-84
2022/10/09 15:46:09;;;;;;;2.42;1.50;;;;;;;;;;6053004;29;20483;-84
2022/10/09 15:49:11;;;;;;;1.67;1.23;;;;;;;;;;6036263;29;21017;-84
2022/10/09 15:52:12;;;;;;;2.35;1.27;;;;;;;;;;6036600;29;20110;-84
2022/10/09 15:55:14;;;;;;;2.08;1.20;;;;;;;;;;6031847;29;20131;-84
2022/10/09 15:58:16;;;;;;;2.45;1.25;;;;;;;;;;6028073;29;20045;-83
2022/10/09 16:01:19;;;;;;;2.97;1.70;;;;;;;;;;6028118;29;20056;-83
2022/10/09 16:04:21;;;;;;;2.95;1.10;;;;;;;;;;6035710;29;20072;-84
2022/10/09 16:07:24;;;;;;;3.70;1.05;;;;;;;;;;6025040;29;20197;-84
2022/10/09 16:10:26;;;;;;;1.42;1.33;;;;;;;;;;6031705;29;20059;-84
2022/10/09 16:13:28;;;;;;;2.23;1.10;;;;;;;;;;6041988;29;20045;-84
2022/10/09 16:16:30;;;;;;;3.08;1.20;;;;;;;;;;6053443;29;20051;-83
2022/10/09 16:19:31;;;;;;;1.42;1.00;;;;;;;;;;6055638;29;20061;-83
2022/10/09 16:22:33;;;;;;;2.90;1.33;;;;;;;;;;6053192;29;20135;-83
2022/10/09 16:25:37;;;;;;;3.38;1.38;;;;;;;;;;6036969;29;20044;-84
2022/10/09 16:28:38;;;;;;;4.45;4.05;;;;;;;;;;6028397;29;20057;-84
2022/10/09 16:31:40;;;;;;;5.05;3.22;;;;;;;;;;6035733;29;20536;-84
2022/10/09 16:34:42;;;;;;;5.75;3.85;;;;;;;;;;6053783;29;20049;-83
2022/10/09 16:37:44;;;;;;;3.72;2.70;;;;;;;;;;6052326;29;20064;-83
2022/10/09 16:40:48;;;;;;;2.22;1.70;;;;;;;;;;6031777;29;20052;-83
2022/10/09 16:44:11;;;;;;;2.90;1.80;;;;;;;;;;6037158;29;20049;-83
2022/10/09 16:47:13;;;;;;;3.13;1.95;;;;;;;;;;6051693;29;20503;-83
2022/10/09 16:50:15;;;;;;;2.20;1.65;;;;;;;;;;6034106;29;20067;-83
2022/10/09 16:53:16;;;;;;;3.95;1.52;;;;;;;;;;6038815;29;20104;-84
2022/10/09 16:56:22;;;;;;;5.10;1.77;;;;;;;;;;6049284;29;20049;-83
2022/10/09 16:59:24;;;;;;;5.90;3.90;;;;;;;;;;6022679;29;20049;-83
2022/10/09 17:02:26;;;;;;;4.68;2.70;;;;;;;;;;6042614;29;20106;-83
2022/10/09 17:05:27;;;;;;;7.18;4.10;;;;;;;;;;6031761;29;20052;-84
2022/10/09 17:08:29;;;;;;;3.45;2.50;;;;;;;;;;6034560;29;20068;-83
2022/10/09 17:11:31;;;;;;;4.30;1.80;;;;;;;;;;6034623;29;20053;-83
2022/10/09 17:14:34;;;;;;;4.70;3.10;;;;;;;;;;6018467;29;20049;-83
2022/10/09 17:17:37;;;;;;;4.75;2.45;;;;;;;;;;6047974;29;20577;-84
2022/10/09 17:20:39;;;;;;;4.22;2.53;;;;;;;;;;6034734;29;20067;-84
2022/10/09 17:23:41;;;;;;;2.72;1.92;;;;;;;;;;6020459;29;20069;-83
2022/10/09 17:26:42;;;;;;;4.25;2.30;;;;;;;;;;6034048;29;20045;-83
2022/10/09 17:29:44;;;;;;;3.95;2.65;;;;;;;;;;6032543;29;20171;-83
2022/10/09 17:32:46;;;;;;;3.85;3.20;;;;;;;;;;6032453;29;20053;-84
2022/10/09 17:35:48;;;;;;;5.80;2.80;;;;;;;;;;6013236;29;20156;-84
2022/10/09 17:38:58;;;;;;;5.88;2.35;;;;;;;;;;6038655;29;20166;-84
2022/10/09 17:42:00;;;;;;;7.13;4.70;;;;;;;;;;6044347;29;20049;-84
2022/10/09 17:45:05;;;;;;;6.47;4.32;;;;;;;;;;6037460;29;20056;-84
2022/10/09 17:48:07;;;;;;;6.43;4.93;;;;;;;;;;6029393;29;20056;-84
2022/10/09 17:51:14;;;;;;;8.18;4.68;;;;;;;;;;6021035;29;20056;-84
2022/10/09 17:54:16;;;;;;;7.82;5.55;;;;;;;;;;6027980;29;20052;-83
2022/10/09 17:57:17;;;;;;;12.23;5.20;;;;;;;;;;6044933;29;20139;-83
2022/10/09 18:00:22;;;;;;;8.75;5.20;;;;;;;;;;6025798;29;20060;-85
2022/10/09 18:03:24;;;;;;;7.78;4.75;;;;;;;;;;6015078;29;20089;-84
2022/10/09 18:06:30;;;;;;;11.63;6.25;;;;;;;;;;6041264;29;20064;-85
2022/10/09 18:09:32;;;;;;;8.77;4.88;;;;;;;;;;6015937;29;20061;-84
2022/10/09 18:12:34;;;;;;;10.20;5.03;;;;;;;;;;5998981;29;20073;-84
2022/10/09 18:15:41;;;;;;;7.22;4.97;;;;;;;;;;6041897;29;20049;-84
2022/10/09 18:18:43;;;;;;;7.43;4.50;;;;;;;;;;6012215;29;20136;-84
2022/10/09 18:21:47;;;;;;;8.00;3.70;;;;;;;;;;6025090;29;20053;-83
2022/10/09 18:24:49;;;;;;;5.43;3.45;;;;;;;;;;6026891;29;20053;-84
2022/10/09 18:27:51;;;;;;;5.22;3.10;;;;;;;;;;6039632;29;20068;-83
2022/10/09 18:30:54;;;;;;;5.85;3.08;;;;;;;;;;6028832;29;20656;-82